Time;durP1;ratioP1;P1;durP2;ratioP2;P2;SDS_P1;SDS_P2;PMS_P1;PMS_P2;Temp;Humidity;BMP_temperature;BMP_pressure;BME280_temperature;BME280_humidity;BME280_pressure;Samples;Min_cycle;Max_cycle;Signal;HPM_P1;HPM_P2
2021/09/25 00:01:28;;;;;;;10.95;10.05;;;11.60;82.00;;;;;;4995265;29;20966;-72
2021/09/25 00:04:02;;;;;;;11.48;10.57;;;11.60;81.60;;;;;;5010592;29;20050;-72
2021/09/25 00:06:35;;;;;;;11.70;10.68;;;11.60;81.60;;;;;;5011325;29;20428;-71
2021/09/25 00:09:06;;;;;;;11.32;10.43;;;11.60;81.30;;;;;;5010010;29;20050;-71
2021/09/25 00:11:38;;;;;;;11.07;10.18;;;11.50;81.00;;;;;;4993917;29;20136;-71
2021/09/25 00:14:10;;;;;;;11.38;10.48;;;11.60;81.00;;;;;;4994375;29;20788;-71
2021/09/25 00:16:45;;;;;;;11.52;10.45;;;11.50;81.90;;;;;;5009021;29;20186;-70
2021/09/25 00:19:17;;;;;;;11.23;10.43;;;11.50;82.40;;;;;;5005898;29;20060;-72
2021/09/25 00:21:49;;;;;;;11.05;10.05;;;11.40;82.40;;;;;;5009788;29;20053;-71
2021/09/25 00:24:21;;;;;;;11.85;10.65;;;11.30;82.10;;;;;;5011929;29;20444;-71
2021/09/25 00:26:53;;;;;;;11.10;10.15;;;11.30;82.40;;;;;;5008803;29;20128;-71
2021/09/25 00:29:25;;;;;;;11.30;10.40;;;11.30;82.20;;;;;;5007777;29;20054;-72
2021/09/25 00:31:57;;;;;;;12.40;11.10;;;11.30;82.40;;;;;;5009830;29;20042;-71
2021/09/25 00:34:29;;;;;;;11.95;11.05;;;11.30;82.70;;;;;;5012246;29;20053;-71
2021/09/25 00:37:01;;;;;;;11.88;10.88;;;11.30;82.10;;;;;;4993354;29;20050;-71
2021/09/25 00:39:33;;;;;;;11.23;10.32;;;11.30;82.40;;;;;;4993809;29;20128;-71
2021/09/25 00:42:05;;;;;;;11.57;10.68;;;11.30;82.10;;;;;;5010676;29;20053;-72
2021/09/25 00:44:37;;;;;;;11.23;10.32;;;11.20;81.80;;;;;;5010222;29;20173;-71
2021/09/25 00:47:11;;;;;;;12.05;10.88;;;11.10;82.20;;;;;;5008252;29;20053;-72
2021/09/25 00:49:43;;;;;;;11.27;10.38;;;11.10;81.80;;;;;;4994552;29;20058;-74
2021/09/25 00:52:15;;;;;;;11.00;10.10;;;11.10;81.80;;;;;;5010233;29;20060;-72
2021/09/25 00:54:47;;;;;;;10.43;9.60;;;11.10;82.00;;;;;;5010310;29;20547;-73
2021/09/25 00:57:19;;;;;;;11.73;10.82;;;11.10;81.80;;;;;;5008890;29;20114;-73
2021/09/25 00:59:52;;;;;;;12.57;11.50;;;11.10;82.10;;;;;;5010650;29;20121;-72
2021/09/25 01:02:24;;;;;;;12.18;11.18;;;11.00;82.40;;;;;;5012386;29;20041;-72
2021/09/25 01:04:57;;;;;;;12.30;11.20;;;10.80;82.70;;;;;;5013193;29;20057;-71
2021/09/25 01:07:28;;;;;;;11.52;10.52;;;10.80;83.50;;;;;;5012997;29;20723;-72
2021/09/25 01:10:01;;;;;;;11.50;10.60;;;10.80;82.30;;;;;;5013947;29;20814;-71
2021/09/25 01:12:33;;;;;;;11.40;10.45;;;10.80;81.90;;;;;;5013982;29;20091;-72
2021/09/25 01:15:07;;;;;;;11.35;10.35;;;10.80;81.90;;;;;;5012560;29;20056;-71
2021/09/25 01:17:40;;;;;;;11.88;10.77;;;10.80;82.20;;;;;;5012357;29;20041;-71
2021/09/25 01:20:12;;;;;;;11.70;10.80;;;10.80;81.90;;;;;;5010401;29;20062;-71
2021/09/25 01:22:44;;;;;;;11.45;10.50;;;10.80;81.80;;;;;;5013687;29;20137;-71
2021/09/25 01:25:16;;;;;;;12.18;11.05;;;10.80;82.40;;;;;;5010128;29;20163;-71
2021/09/25 01:27:48;;;;;;;11.07;10.18;;;10.70;82.40;;;;;;4995408;29;20049;-72
2021/09/25 01:30:21;;;;;;;11.35;10.38;;;10.70;82.80;;;;;;5012457;29;20473;-71
2021/09/25 01:32:53;;;;;;;11.23;10.20;;;10.60;82.90;;;;;;5014484;29;20073;-72
2021/09/25 01:35:25;;;;;;;11.65;10.52;;;10.60;83.10;;;;;;5013435;29;20046;-71
2021/09/25 01:37:57;;;;;;;11.55;10.65;;;10.60;83.20;;;;;;5013484;29;20045;-71
2021/09/25 01:40:29;;;;;;;11.95;11.05;;;10.60;83.50;;;;;;5014697;29;20133;-71
2021/09/25 01:43:01;;;;;;;12.38;11.27;;;10.50;83.20;;;;;;5012971;29;20037;-72
2021/09/25 01:45:33;;;;;;;11.73;10.73;;;10.40;82.80;;;;;;5005691;29;20451;-71
2021/09/25 01:48:05;;;;;;;12.10;11.10;;;10.30;83.50;;;;;;5011454;29;20078;-71
2021/09/25 01:50:37;;;;;;;12.25;10.65;;;10.30;83.10;;;;;;5010959;29;20045;-71
2021/09/25 01:53:10;;;;;;;12.48;11.38;;;10.30;84.30;;;;;;5012341;29;20049;-71
2021/09/25 01:55:42;;;;;;;11.13;10.23;;;10.30;83.70;;;;;;5010646;29;20053;-71
2021/09/25 01:58:14;;;;;;;11.10;10.20;;;10.20;83.20;;;;;;4980220;29;20053;-71
2021/09/25 02:00:46;;;;;;;11.05;10.18;;;10.10;83.50;;;;;;5012376;29;20134;-71
2021/09/25 02:03:18;;;;;;;11.20;10.30;;;10.10;84.30;;;;;;5013314;29;20116;-72
2021/09/25 02:05:50;;;;;;;11.20;10.30;;;10.10;84.40;;;;;;5010476;29;20046;-72
2021/09/25 02:08:22;;;;;;;11.50;10.50;;;10.00;83.70;;;;;;4996850;29;20073;-71
2021/09/25 02:10:54;;;;;;;11.25;10.35;;;9.90;84.00;;;;;;5011105;29;20075;-71
2021/09/25 02:13:26;;;;;;;11.32;10.38;;;9.80;84.10;;;;;;5013451;29;20588;-70
2021/09/25 02:15:59;;;;;;;11.15;10.15;;;9.80;83.80;;;;;;5011334;29;20169;-72
2021/09/25 02:18:31;;;;;;;12.23;11.05;;;9.80;83.60;;;;;;5012002;29;20057;-71
2021/09/25 02:21:03;;;;;;;11.27;10.25;;;9.80;83.90;;;;;;5011786;29;20050;-72
2021/09/25 02:23:35;;;;;;;10.85;10.02;;;9.80;84.50;;;;;;5013181;29;20133;-72
2021/09/25 02:26:08;;;;;;;10.75;9.85;;;9.80;84.80;;;;;;5011218;29;20651;-71
2021/09/25 02:28:39;;;;;;;10.90;10.00;;;9.80;84.40;;;;;;4994441;29;20679;-70
2021/09/25 02:31:11;;;;;;;10.27;9.48;;;9.80;84.50;;;;;;5012397;29;20432;-71
2021/09/25 02:33:43;;;;;;;10.23;9.32;;;9.80;85.10;;;;;;4993762;29;20126;-71
2021/09/25 02:36:15;;;;;;;10.98;10.18;;;9.80;85.10;;;;;;5010738;29;20172;-71
2021/09/25 02:38:47;;;;;;;10.27;9.48;;;9.90;85.20;;;;;;5013819;29;20080;-71
2021/09/25 02:41:19;;;;;;;11.07;10.13;;;9.90;84.70;;;;;;5011346;29;20064;-71
2021/09/25 02:43:51;;;;;;;11.40;10.40;;;10.00;85.20;;;;;;5013288;29;20109;-72
2021/09/25 02:46:23;;;;;;;10.88;10.02;;;9.90;85.20;;;;;;5000240;29;20041;-71
2021/09/25 02:48:55;;;;;;;10.48;9.65;;;9.90;85.60;;;;;;5012176;29;20045;-70
2021/09/25 02:51:27;;;;;;;10.57;9.77;;;10.00;85.40;;;;;;4997264;29;20489;-71
2021/09/25 02:53:59;;;;;;;10.90;10.00;;;10.00;85.10;;;;;;5011633;29;20050;-72
2021/09/25 02:56:31;;;;;;;11.15;10.25;;;10.00;84.80;;;;;;5008786;29;20128;-72
2021/09/25 02:59:04;;;;;;;11.95;10.95;;;10.00;84.30;;;;;;5012052;29;20048;-72
2021/09/25 03:01:48;;;;;;;11.80;10.80;;;10.00;83.50;;;;;;5010375;29;20420;-73
2021/09/25 03:04:20;;;;;;;10.88;9.88;;;10.00;83.30;;;;;;4995771;29;20102;-72
2021/09/25 03:06:52;;;;;;;11.40;10.40;;;9.90;83.50;;;;;;4993943;29;20516;-72
2021/09/25 03:09:24;;;;;;;11.50;10.50;;;9.90;83.30;;;;;;5011769;29;20045;-71
2021/09/25 03:11:56;;;;;;;10.73;9.65;;;9.90;83.10;;;;;;4984228;29;20066;-72
2021/09/25 03:14:28;;;;;;;10.95;10.05;;;9.90;83.00;;;;;;5011094;29;20060;-72
2021/09/25 03:17:00;;;;;;;10.15;9.30;;;9.90;83.40;;;;;;4991983;29;20041;-72
2021/09/25 03:19:32;;;;;;;10.98;10.07;;;9.80;83.80;;;;;;5009254;29;20140;-72
2021/09/25 03:22:03;;;;;;;10.95;9.95;;;9.80;83.30;;;;;;5010006;29;20815;-72
2021/09/25 03:24:36;;;;;;;11.05;10.15;;;9.80;83.00;;;;;;5011882;29;20072;-72
2021/09/25 03:27:08;;;;;;;10.38;9.57;;;9.90;83.50;;;;;;4999136;29;20071;-72
2021/09/25 03:29:40;;;;;;;10.13;9.32;;;9.80;84.30;;;;;;5012033;29;20053;-72
2021/09/25 03:32:12;;;;;;;10.60;9.70;;;9.80;84.30;;;;;;4995028;29;20939;-71
2021/09/25 03:34:44;;;;;;;10.88;9.98;;;9.80;85.00;;;;;;5008723;29;20052;-72
2021/09/25 03:37:16;;;;;;;11.13;10.10;;;9.80;84.90;;;;;;5010202;29;20049;-72
2021/09/25 03:39:48;;;;;;;11.13;10.00;;;9.70;83.90;;;;;;5010640;29;20051;-71
2021/09/25 03:42:19;;;;;;;10.55;9.57;;;9.80;83.50;;;;;;5011079;29;20580;-72
2021/09/25 03:44:52;;;;;;;10.73;9.82;;;9.70;83.40;;;;;;5009555;29;20063;-70
2021/09/25 03:47:23;;;;;;;10.60;9.70;;;9.70;84.20;;;;;;5011622;29;20044;-71
2021/09/25 03:49:55;;;;;;;10.60;9.80;;;9.70;84.70;;;;;;5009680;29;20704;-72
2021/09/25 03:52:27;;;;;;;10.93;9.93;;;9.70;84.20;;;;;;4994246;29;20052;-72
2021/09/25 03:54:59;;;;;;;10.75;9.75;;;9.60;83.30;;;;;;5008817;29;20056;-71
2021/09/25 03:57:31;;;;;;;11.73;10.63;;;9.60;83.00;;;;;;5008720;29;20115;-71
2021/09/25 04:00:04;;;;;;;11.50;10.60;;;9.50;82.70;;;;;;4992404;29;20068;-71
2021/09/25 04:02:36;;;;;;;11.20;10.35;;;9.40;82.70;;;;;;5011421;29;20062;-71
2021/09/25 04:05:09;;;;;;;11.18;10.25;;;9.40;83.00;;;;;;4991514;29;20054;-71
2021/09/25 04:07:41;;;;;;;11.05;10.13;;;9.40;83.20;;;;;;5009565;29;20113;-70
2021/09/25 04:10:14;;;;;;;10.20;9.40;;;9.50;83.70;;;;;;4984291;29;20174;-71
2021/09/25 04:12:46;;;;;;;10.95;10.05;;;9.40;83.10;;;;;;5010060;29;20144;-70
2021/09/25 04:15:18;;;;;;;11.00;10.10;;;9.40;83.10;;;;;;5009752;29;20056;-70
2021/09/25 04:17:50;;;;;;;11.20;10.20;;;9.50;83.00;;;;;;4991455;29;20057;-70
2021/09/25 04:20:23;;;;;;;11.55;10.55;;;9.40;83.10;;;;;;5009144;29;20053;-70
2021/09/25 04:22:55;;;;;;;11.30;10.40;;;9.40;83.00;;;;;;4994736;29;20105;-70
2021/09/25 04:25:30;;;;;;;10.73;9.90;;;9.30;83.00;;;;;;4993560;29;20049;-70
2021/09/25 04:28:05;;;;;;;11.05;10.15;;;9.20;82.90;;;;;;5009164;29;20355;-70
2021/09/25 04:30:39;;;;;;;11.00;10.10;;;9.20;82.80;;;;;;5009426;29;20148;-70
2021/09/25 04:33:11;;;;;;;11.40;10.45;;;9.20;82.70;;;;;;5010758;29;20125;-70
2021/09/25 04:35:42;;;;;;;11.20;10.30;;;9.20;82.90;;;;;;5008592;29;20056;-70
2021/09/25 04:38:15;;;;;;;10.70;9.90;;;9.30;82.90;;;;;;4993613;29;20077;-70
2021/09/25 04:40:47;;;;;;;10.35;9.55;;;9.20;83.10;;;;;;5009832;29;20264;-71
2021/09/25 04:43:18;;;;;;;10.25;9.38;;;9.30;83.50;;;;;;4993855;29;20050;-71
2021/09/25 04:45:50;;;;;;;11.13;10.13;;;9.20;84.00;;;;;;5009177;29;20482;-72
2021/09/25 04:48:22;;;;;;;10.57;9.77;;;9.30;84.70;;;;;;4993840;29;20053;-71
2021/09/25 04:50:54;;;;;;;10.23;9.35;;;9.30;84.90;;;;;;5008709;29;20791;-71
2021/09/25 04:53:26;;;;;;;10.23;9.43;;;9.30;85.10;;;;;;5008371;29;20682;-71
2021/09/25 04:55:58;;;;;;;10.82;9.70;;;9.30;85.40;;;;;;5007860;29;20081;-71
2021/09/25 04:58:31;;;;;;;10.63;9.63;;;9.30;84.40;;;;;;4993541;29;20462;-71
2021/09/25 05:01:07;;;;;;;10.82;9.82;;;9.30;84.30;;;;;;5009925;29;20054;-71
2021/09/25 05:03:39;;;;;;;10.80;9.90;;;9.30;84.30;;;;;;5010983;29;20048;-71
2021/09/25 05:06:11;;;;;;;11.15;10.07;;;9.30;84.90;;;;;;5011391;29;20576;-71
2021/09/25 05:08:43;;;;;;;10.57;9.77;;;9.20;85.30;;;;;;4977920;29;20042;-74
2021/09/25 05:11:16;;;;;;;10.85;9.95;;;9.20;85.40;;;;;;4983280;29;20125;-71
2021/09/25 05:13:47;;;;;;;10.40;9.50;;;9.20;85.30;;;;;;4978616;29;20064;-72
2021/09/25 05:16:20;;;;;;;9.98;9.18;;;9.20;85.20;;;;;;5010531;29;20140;-71
2021/09/25 05:18:52;;;;;;;10.43;9.63;;;9.30;84.90;;;;;;5008460;29;20739;-72
2021/09/25 05:21:24;;;;;;;10.95;10.02;;;9.30;85.50;;;;;;4991702;29;20137;-72
2021/09/25 05:23:56;;;;;;;10.05;9.25;;;9.30;85.70;;;;;;5010272;29;20544;-71
2021/09/25 05:26:28;;;;;;;10.68;9.77;;;9.30;85.90;;;;;;5007578;29;20576;-72
2021/09/25 05:29:00;;;;;;;11.27;10.27;;;9.30;85.90;;;;;;4997951;29;20054;-73
2021/09/25 05:31:31;;;;;;;11.40;10.40;;;9.30;84.40;;;;;;4993635;29;20068;-73
2021/09/25 05:34:04;;;;;;;10.90;9.90;;;9.20;84.10;;;;;;5011053;29;20501;-71
2021/09/25 05:36:36;;;;;;;11.73;10.55;;;9.20;84.20;;;;;;5007360;29;20137;-71
2021/09/25 05:39:08;;;;;;;11.27;10.27;;;9.10;84.70;;;;;;5009219;29;20416;-71
2021/09/25 05:41:40;;;;;;;11.20;10.10;;;9.10;84.80;;;;;;5009791;29;20133;-70
2021/09/25 05:44:12;;;;;;;11.10;10.20;;;9.10;84.40;;;;;;5008302;29;20041;-71
2021/09/25 05:46:44;;;;;;;11.18;9.98;;;9.30;84.20;;;;;;4993304;29;20136;-72
2021/09/25 05:49:16;;;;;;;11.63;10.52;;;9.30;84.50;;;;;;5011998;29;20049;-73
2021/09/25 05:51:48;;;;;;;10.10;9.30;;;9.40;84.60;;;;;;4981137;29;20052;-72
2021/09/25 05:54:20;;;;;;;11.13;10.13;;;9.50;84.60;;;;;;5013867;29;20045;-70
2021/09/25 05:56:52;;;;;;;10.27;9.38;;;9.60;84.40;;;;;;5013069;29;20607;-71
2021/09/25 05:59:24;;;;;;;10.70;9.60;;;9.70;85.00;;;;;;4987285;29;20240;-71
2021/09/25 06:01:56;;;;;;;10.20;9.30;;;9.70;86.00;;;;;;4995649;29;20050;-71
2021/09/25 06:04:28;;;;;;;10.23;9.32;;;9.60;86.40;;;;;;5012415;29;20049;-72
2021/09/25 06:07:01;;;;;;;10.40;9.60;;;9.60;86.90;;;;;;5011654;29;20049;-71
2021/09/25 06:09:32;;;;;;;11.00;9.95;;;9.80;86.90;;;;;;4996538;29;20041;-72
2021/09/25 06:12:05;;;;;;;10.88;9.63;;;9.90;86.40;;;;;;4979566;29;20049;-71
2021/09/25 06:14:37;;;;;;;10.45;9.60;;;10.10;86.40;;;;;;5012718;29;20781;-71
2021/09/25 06:17:09;;;;;;;10.55;9.75;;;10.20;85.90;;;;;;5010191;29;20124;-71
2021/09/25 06:19:41;;;;;;;10.80;9.68;;;10.30;85.50;;;;;;5014459;29;20057;-71
2021/09/25 06:22:13;;;;;;;11.38;10.30;;;10.40;85.20;;;;;;4993964;29;20081;-71
2021/09/25 06:24:45;;;;;;;10.75;9.85;;;10.50;85.00;;;;;;5001652;29;20045;-71
2021/09/25 06:27:18;;;;;;;10.73;9.85;;;10.60;84.20;;;;;;5010467;29;20069;-72
2021/09/25 06:29:49;;;;;;;11.07;10.07;;;10.70;84.40;;;;;;5012914;29;20073;-71
2021/09/25 06:32:21;;;;;;;10.73;9.82;;;10.70;85.20;;;;;;5011747;29;20174;-71
2021/09/25 06:34:53;;;;;;;11.23;10.32;;;10.80;85.00;;;;;;4996336;29;20117;-71
2021/09/25 06:37:26;;;;;;;11.73;10.82;;;11.00;85.10;;;;;;5009584;29;20069;-71
2021/09/25 06:39:58;;;;;;;11.55;10.65;;;11.10;85.70;;;;;;5011459;29;20050;-71
2021/09/25 06:42:29;;;;;;;11.32;10.32;;;11.30;85.50;;;;;;5011395;29;20065;-71
2021/09/25 06:45:02;;;;;;;12.07;11.18;;;11.50;84.60;;;;;;5013066;29;20069;-71
2021/09/25 06:47:34;;;;;;;12.57;11.38;;;11.70;84.40;;;;;;5008424;29;20053;-71
2021/09/25 06:50:07;;;;;;;11.43;10.43;;;11.80;84.10;;;;;;4994343;29;20500;-71
2021/09/25 06:52:39;;;;;;;12.80;11.60;;;11.90;83.70;;;;;;4996362;29;20456;-71
2021/09/25 06:55:11;;;;;;;12.30;11.38;;;11.90;83.70;;;;;;4980245;29;20115;-71
2021/09/25 06:57:43;;;;;;;12.40;11.50;;;12.00;84.10;;;;;;4993497;29;20045;-71
2021/09/25 07:00:15;;;;;;;14.95;13.52;;;12.20;84.20;;;;;;5011681;29;20588;-71
2021/09/25 07:02:47;;;;;;;14.25;12.95;;;12.30;84.10;;;;;;4992969;29;20073;-71
2021/09/25 07:05:20;;;;;;;19.42;17.48;;;12.60;83.60;;;;;;4977219;29;20124;-71
2021/09/25 07:07:53;;;;;;;27.58;22.58;;;12.70;82.20;;;;;;4983321;29;20550;-71
2021/09/25 07:10:24;;;;;;;21.17;17.90;;;12.80;82.30;;;;;;4995568;29;20132;-72
2021/09/25 07:12:56;;;;;;;14.60;13.20;;;13.00;82.70;;;;;;5009001;29;20053;-71
2021/09/25 07:15:29;;;;;;;12.75;11.75;;;13.20;82.00;;;;;;4998664;29;20049;-71
2021/09/25 07:18:01;;;;;;;14.00;12.90;;;13.30;82.60;;;;;;5010816;29;20145;-72
2021/09/25 07:20:32;;;;;;;12.88;11.88;;;13.50;83.60;;;;;;4993429;29;20053;-73
2021/09/25 07:23:04;;;;;;;12.70;11.68;;;13.70;82.10;;;;;;5011247;29;20064;-72
2021/09/25 07:25:39;;;;;;;13.07;11.88;;;13.80;82.00;;;;;;5011140;29;20053;-72
2021/09/25 07:28:11;;;;;;;12.70;11.70;;;14.00;81.30;;;;;;5010336;29;20058;-71
2021/09/25 07:30:44;;;;;;;13.13;12.07;;;14.20;81.00;;;;;;4993836;29;20045;-71
2021/09/25 07:33:16;;;;;;;12.60;11.50;;;14.40;80.90;;;;;;4994052;29;20049;-72
2021/09/25 07:35:48;;;;;;;13.50;12.40;;;14.50;79.70;;;;;;4993020;29;20504;-71
2021/09/25 07:38:20;;;;;;;13.15;11.95;;;14.60;80.00;;;;;;4995262;29;20069;-72
2021/09/25 07:40:54;;;;;;;13.05;12.13;;;14.80;80.10;;;;;;4995290;29;20101;-71
2021/09/25 07:43:26;;;;;;;13.30;12.30;;;14.90;78.60;;;;;;5008757;29;20141;-71
2021/09/25 07:45:58;;;;;;;13.90;12.60;;;15.00;77.90;;;;;;5008560;29;20141;-72
2021/09/25 07:48:31;;;;;;;13.23;12.23;;;15.10;80.20;;;;;;5010169;29;20060;-73
2021/09/25 07:51:03;;;;;;;13.55;12.55;;;15.30;78.50;;;;;;5010998;29;20166;-71
2021/09/25 07:53:35;;;;;;;14.07;13.07;;;15.40;77.60;;;;;;5010774;29;20533;-72
2021/09/25 07:56:07;;;;;;;13.82;12.82;;;15.50;77.00;;;;;;5006843;29;20451;-71
2021/09/25 07:58:39;;;;;;;13.82;12.75;;;15.60;75.80;;;;;;4991813;29;20077;-71
2021/09/25 08:01:11;;;;;;;14.05;12.95;;;15.70;77.40;;;;;;5012988;29;20094;-72
2021/09/25 08:03:43;;;;;;;14.23;13.23;;;15.80;74.70;;;;;;4982737;29;20041;-72
2021/09/25 08:06:16;;;;;;;13.65;12.55;;;15.90;75.70;;;;;;5007740;29;20062;-72
2021/09/25 08:08:48;;;;;;;14.10;13.10;;;16.10;74.10;;;;;;5011265;29;20136;-73
2021/09/25 08:11:20;;;;;;;14.07;12.88;;;16.20;74.40;;;;;;5008788;29;20046;-73
2021/09/25 08:13:52;;;;;;;14.57;13.32;;;16.20;73.70;;;;;;4995618;29;20045;-73
2021/09/25 08:16:24;;;;;;;14.30;13.15;;;16.40;75.30;;;;;;5008583;29;20152;-72
2021/09/25 08:18:57;;;;;;;14.73;13.60;;;16.60;77.30;;;;;;4993590;29;20078;-72
2021/09/25 08:21:28;;;;;;;14.68;13.57;;;16.70;74.50;;;;;;5009208;29;20109;-71
2021/09/25 08:24:00;;;;;;;15.00;13.93;;;16.80;76.30;;;;;;5010123;29;20132;-72
2021/09/25 08:26:32;;;;;;;14.93;13.68;;;17.00;75.30;;;;;;4993426;29;20049;-72
2021/09/25 08:29:04;;;;;;;14.88;13.70;;;17.10;74.30;;;;;;4994921;29;20057;-73
2021/09/25 08:31:36;;;;;;;13.93;12.77;;;17.20;74.20;;;;;;4995004;29;20587;-72
2021/09/25 08:34:08;;;;;;;14.90;13.70;;;17.40;72.50;;;;;;5011318;29;20145;-72
2021/09/25 08:36:40;;;;;;;15.48;14.27;;;17.50;70.60;;;;;;5008628;29;20400;-72
2021/09/25 08:39:12;;;;;;;14.75;13.60;;;17.60;71.80;;;;;;4992635;29;20514;-71
2021/09/25 08:41:45;;;;;;;14.90;13.82;;;17.70;67.20;;;;;;5010150;29;20574;-72
2021/09/25 08:44:18;;;;;;;14.82;13.82;;;17.80;67.20;;;;;;4996480;29;20649;-71
2021/09/25 08:46:50;;;;;;;15.48;14.27;;;17.90;67.70;;;;;;5008500;29;20747;-71
2021/09/25 08:49:22;;;;;;;14.93;13.73;;;18.00;68.30;;;;;;5007576;29;20684;-72
2021/09/25 08:51:54;;;;;;;16.02;14.60;;;18.10;70.00;;;;;;5010083;29;20056;-72
2021/09/25 08:54:29;;;;;;;15.68;14.45;;;18.20;69.00;;;;;;5010281;29;20124;-71
2021/09/25 08:57:05;;;;;;;15.23;14.02;;;18.30;70.10;;;;;;4997118;29;20420;-72
2021/09/25 08:59:37;;;;;;;15.80;14.52;;;18.40;69.70;;;;;;4993472;29;20505;-72
2021/09/25 09:02:17;;;;;;;15.18;14.07;;;18.50;68.70;;;;;;4997339;29;20118;-72
2021/09/25 09:04:52;;;;;;;15.18;13.95;;;18.50;62.90;;;;;;5010673;29;20057;-72
2021/09/25 09:07:28;;;;;;;15.57;14.40;;;18.60;63.10;;;;;;5008519;29;20046;-71
2021/09/25 09:10:00;;;;;;;15.43;14.23;;;18.70;64.40;;;;;;5010710;29;20449;-72
2021/09/25 09:12:32;;;;;;;16.33;15.00;;;18.70;65.40;;;;;;5008987;29;20866;-72
2021/09/25 09:15:04;;;;;;;15.50;14.27;;;18.90;68.40;;;;;;4999444;29;20165;-71
2021/09/25 09:17:37;;;;;;;16.05;14.82;;;19.00;68.90;;;;;;4991961;29;20046;-72
2021/09/25 09:20:10;;;;;;;16.23;14.65;;;19.10;68.60;;;;;;4991805;29;20134;-71
2021/09/25 09:22:42;;;;;;;16.02;14.93;;;19.20;68.50;;;;;;4999888;29;20128;-71
2021/09/25 09:25:13;;;;;;;16.35;15.15;;;19.30;68.90;;;;;;5012367;29;20156;-73
2021/09/25 09:27:45;;;;;;;16.48;15.27;;;19.40;69.90;;;;;;4979350;29;20062;-71
2021/09/25 09:30:17;;;;;;;16.25;15.05;;;19.50;69.40;;;;;;5011438;29;20053;-72
2021/09/25 09:32:50;;;;;;;16.52;15.32;;;19.60;69.50;;;;;;5012467;29;20053;-72
2021/09/25 09:35:22;;;;;;;16.60;15.40;;;19.80;68.30;;;;;;5011894;29;20087;-71
2021/09/25 09:37:56;;;;;;;16.13;14.93;;;19.80;67.90;;;;;;5010950;29;20050;-71
2021/09/25 09:40:28;;;;;;;16.25;15.15;;;19.90;69.00;;;;;;5010770;29;20483;-71
2021/09/25 09:43:00;;;;;;;16.50;15.20;;;19.90;68.20;;;;;;5011797;29;20479;-71
2021/09/25 09:45:36;;;;;;;16.50;15.38;;;19.90;67.00;;;;;;5012259;29;20049;-70
2021/09/25 09:48:09;;;;;;;16.80;15.45;;;20.00;68.20;;;;;;5012901;29;20136;-71
2021/09/25 09:50:42;;;;;;;16.25;15.15;;;20.10;66.60;;;;;;5010533;29;20097;-71
2021/09/25 09:53:15;;;;;;;16.33;15.07;;;20.20;67.00;;;;;;5010840;29;20121;-71
2021/09/25 09:55:50;;;;;;;16.98;15.75;;;20.30;66.20;;;;;;5011307;29;20059;-72
2021/09/25 09:58:30;;;;;;;16.92;15.68;;;20.40;64.20;;;;;;4986013;29;20060;-71
2021/09/25 10:01:02;;;;;;;17.17;15.90;;;20.50;67.20;;;;;;5013310;29;21119;-71
2021/09/25 10:03:34;;;;;;;16.23;15.13;;;20.50;65.40;;;;;;5012980;29;20053;-71
2021/09/25 10:06:06;;;;;;;17.10;15.90;;;20.60;63.20;;;;;;5008301;29;20049;-72
2021/09/25 10:08:40;;;;;;;17.52;16.05;;;20.60;65.50;;;;;;4996114;29;20080;-72
2021/09/25 10:11:14;;;;;;;17.25;15.93;;;20.70;64.20;;;;;;5010993;29;20921;-72
2021/09/25 10:13:46;;;;;;;16.52;15.40;;;20.80;61.60;;;;;;5013448;29;20671;-72
2021/09/25 10:16:18;;;;;;;16.90;15.80;;;20.90;61.70;;;;;;5010895;29;20110;-72
2021/09/25 10:18:51;;;;;;;16.50;15.40;;;21.00;61.00;;;;;;5009838;29;20050;-72
2021/09/25 10:21:25;;;;;;;17.05;15.85;;;21.10;59.20;;;;;;5013227;29;20057;-72
2021/09/25 10:24:06;;;;;;;16.35;15.25;;;21.10;57.10;;;;;;5016649;29;20792;-72
2021/09/25 10:26:46;;;;;;;16.40;15.30;;;21.20;56.60;;;;;;5012280;29;20078;-72
2021/09/25 10:29:20;;;;;;;17.30;16.10;;;21.20;61.00;;;;;;5002116;29;20204;-72
2021/09/25 10:32:25;;;;;;;16.35;15.25;;;21.30;59.90;;;;;;5011849;29;20053;-71
2021/09/25 10:35:27;;;;;;;16.83;15.73;;;21.40;56.90;;;;;;4996467;29;20719;-72
2021/09/25 10:38:02;;;;;;;16.55;15.43;;;21.50;60.30;;;;;;4997293;29;20114;-71
2021/09/25 10:41:16;;;;;;;16.92;15.73;;;21.50;60.70;;;;;;5011448;29;20559;-72
2021/09/25 10:43:48;;;;;;;17.30;15.93;;;21.60;61.60;;;;;;5009298;29;20144;-71
2021/09/25 10:46:20;;;;;;;16.20;15.00;;;21.60;61.70;;;;;;5010801;29;20077;-71
2021/09/25 10:48:54;;;;;;;16.88;15.63;;;21.70;61.10;;;;;;5004665;29;20056;-72
2021/09/25 10:51:29;;;;;;;17.73;16.42;;;21.70;62.60;;;;;;5009776;29;20102;-71
2021/09/25 10:54:02;;;;;;;17.42;16.23;;;21.80;60.10;;;;;;5009695;29;20086;-71
2021/09/25 10:56:46;;;;;;;16.75;15.43;;;21.80;60.70;;;;;;5009122;29;20045;-72
2021/09/25 10:59:18;;;;;;;17.08;15.88;;;21.80;61.90;;;;;;5012114;29;20220;-72
2021/09/25 11:01:55;;;;;;;17.13;15.80;;;21.90;60.40;;;;;;5011452;29;20198;-72
2021/09/25 11:04:33;;;;;;;17.58;16.25;;;22.00;59.70;;;;;;5011540;29;20178;-73
2021/09/25 11:07:08;;;;;;;16.92;15.65;;;22.00;58.70;;;;;;5010354;29;20136;-72
2021/09/25 11:09:41;;;;;;;17.73;16.42;;;22.00;59.20;;;;;;4987904;29;20062;-73
2021/09/25 11:12:15;;;;;;;16.65;15.55;;;22.10;60.20;;;;;;5011337;29;20085;-72
2021/09/25 11:14:51;;;;;;;17.75;16.45;;;22.10;58.00;;;;;;5011198;29;20049;-72
2021/09/25 11:17:27;;;;;;;17.38;16.17;;;22.20;59.40;;;;;;4999417;29;20538;-72
2021/09/25 11:20:01;;;;;;;18.27;16.77;;;22.30;60.00;;;;;;5012886;29;20041;-72
2021/09/25 11:22:35;;;;;;;17.33;16.08;;;22.30;59.40;;;;;;5009402;29;20053;-72
2021/09/25 11:25:08;;;;;;;17.13;15.93;;;22.30;59.20;;;;;;5011913;29;20069;-71
2021/09/25 11:27:45;;;;;;;17.95;16.75;;;22.40;61.30;;;;;;4993818;29;20149;-70
2021/09/25 11:30:20;;;;;;;17.45;16.05;;;22.40;57.10;;;;;;5010068;29;21032;-71
2021/09/25 11:32:53;;;;;;;17.33;16.13;;;22.40;58.90;;;;;;5011348;29;20124;-72
2021/09/25 11:35:35;;;;;;;17.63;16.42;;;22.40;58.10;;;;;;5010471;29;20152;-71
2021/09/25 11:38:12;;;;;;;18.05;16.75;;;22.40;57.60;;;;;;5012343;29;20150;-71
2021/09/25 11:40:52;;;;;;;17.52;16.33;;;22.40;58.90;;;;;;5011656;29;20045;-71
2021/09/25 11:43:24;;;;;;;17.52;16.33;;;22.50;59.40;;;;;;5010744;29;20787;-71
2021/09/25 11:45:58;;;;;;;17.55;16.35;;;22.60;59.50;;;;;;5004669;29;20083;-71
2021/09/25 11:48:32;;;;;;;18.27;16.98;;;22.60;58.90;;;;;;5010317;29;20177;-70
2021/09/25 11:51:05;;;;;;;18.88;17.48;;;22.70;59.70;;;;;;5008901;29;20132;-71
2021/09/25 11:53:43;;;;;;;17.48;16.27;;;22.70;59.80;;;;;;5009334;29;20077;-71
2021/09/25 11:56:25;;;;;;;17.83;16.50;;;22.80;59.20;;;;;;5004351;29;20046;-71
2021/09/25 11:58:59;;;;;;;17.90;16.70;;;22.80;59.90;;;;;;5007919;29;20179;-71
2021/09/25 12:01:35;;;;;;;17.73;16.52;;;22.80;56.80;;;;;;4989472;29;20081;-72
2021/09/25 12:04:08;;;;;;;18.55;17.25;;;22.80;57.70;;;;;;5007742;29;20921;-70
2021/09/25 12:06:58;;;;;;;17.70;16.40;;;22.80;57.70;;;;;;4992375;29;20647;-72
2021/09/25 12:09:40;;;;;;;;;;;22.80;57.40;;;;;;4982218;29;20077;-71
2021/09/25 12:12:12;;;;;;;18.33;16.92;;;22.80;58.40;;;;;;4992162;29;19932;-71
2021/09/25 12:14:45;;;;;;;18.00;16.70;;;22.80;59.00;;;;;;4993383;29;20145;-71
2021/09/25 12:17:17;;;;;;;18.13;16.83;;;22.90;59.60;;;;;;5009130;29;20140;-71
2021/09/25 12:19:49;;;;;;;18.05;16.70;;;22.90;60.00;;;;;;4980235;29;20156;-71
2021/09/25 12:22:28;;;;;;;18.10;16.70;;;22.90;58.60;;;;;;5010030;29;20508;-71
2021/09/25 12:25:00;;;;;;;17.88;16.60;;;22.90;60.00;;;;;;5009849;29;20524;-71
2021/09/25 12:27:32;;;;;;;18.02;16.73;;;22.90;58.50;;;;;;4998022;29;20064;-71
2021/09/25 12:30:09;;;;;;;17.73;16.45;;;23.00;58.60;;;;;;5011050;29;20129;-71
2021/09/25 12:32:41;;;;;;;19.08;17.52;;;23.00;58.70;;;;;;5010134;29;20045;-71
2021/09/25 12:35:18;;;;;;;18.13;16.73;;;23.10;59.10;;;;;;5009470;29;20736;-72
2021/09/25 12:37:51;;;;;;;18.42;16.85;;;23.10;59.10;;;;;;5015387;29;20129;-71
2021/09/25 12:40:23;;;;;;;18.25;16.92;;;23.20;59.20;;;;;;4994299;29;20133;-70
2021/09/25 12:42:55;;;;;;;18.63;17.33;;;23.20;60.30;;;;;;5008732;29;20536;-72
2021/09/25 12:45:27;;;;;;;17.73;16.52;;;23.20;58.50;;;;;;5008899;29;20148;-70
2021/09/25 12:48:15;;;;;;;18.40;17.05;;;23.20;59.40;;;;;;5010758;29;20156;-71
2021/09/25 12:50:48;;;;;;;18.33;17.13;;;23.30;58.60;;;;;;5009601;29;20428;-71
2021/09/25 12:53:19;;;;;;;17.98;16.75;;;23.30;58.50;;;;;;5009725;29;20097;-71
2021/09/25 12:55:51;;;;;;;18.73;17.23;;;23.40;58.50;;;;;;5011189;29;20079;-71
2021/09/25 12:58:26;;;;;;;18.45;17.15;;;23.30;59.20;;;;;;5013661;29;20095;-72
2021/09/25 13:00:58;;;;;;;18.80;17.50;;;23.40;58.90;;;;;;5015576;29;20065;-71
2021/09/25 13:03:31;;;;;;;18.40;17.10;;;23.40;59.40;;;;;;5013453;29;20045;-70